Time;durP1;ratioP1;P1;durP2;ratioP2;P2;SDS_P1;SDS_P2;PMS_P1;PMS_P2;Temp;Humidity;BMP_temperature;BMP_pressure;BME280_temperature;BME280_humidity;BME280_pressure;Samples;Min_cycle;Max_cycle;Signal;HPM_P1;HPM_P2
2022/11/06 00:00:49;;;;;;;26.03;14.20;;;;;;;;;;6526922;28;20185;-96
2022/11/06 00:04:01;;;;;;;20.67;15.13;;;;;;;;;;6544059;28;20181;-95
2022/11/06 00:07:13;;;;;;;22.57;14.90;;;;;;;;;;6544321;28;20558;-96
2022/11/06 00:10:26;;;;;;;25.13;14.43;;;;;;;;;;6543694;28;20570;-96
2022/11/06 00:13:36;;;;;;;23.23;14.87;;;;;;;;;;6544257;28;20210;-96
2022/11/06 00:16:47;;;;;;;19.97;14.43;;;;;;;;;;6526468;28;20540;-96
2022/11/06 00:19:57;;;;;;;21.03;14.63;;;;;;;;;;6526511;28;20219;-96
2022/11/06 00:23:07;;;;;;;19.93;13.67;;;;;;;;;;6528677;28;20181;-96
2022/11/06 00:26:22;;;;;;;21.27;14.17;;;;;;;;;;6531038;28;20205;-96
2022/11/06 00:29:32;;;;;;;21.80;14.33;;;;;;;;;;6531126;28;20193;-96
2022/11/06 00:32:45;;;;;;;17.70;13.37;;;;;;;;;;6547396;28;20189;-96
2022/11/06 00:36:31;;;;;;;23.23;14.73;;;;;;;;;;6547461;28;20185;-96
2022/11/06 00:40:34;;;;;;;19.20;13.10;;;;;;;;;;6559534;28;20253;-96
2022/11/06 00:43:53;;;;;;;25.53;14.03;;;;;;;;;;6531575;28;20271;-96
2022/11/06 00:47:04;;;;;;;23.03;15.47;;;;;;;;;;6532982;28;20206;-96
2022/11/06 00:50:14;;;;;;;26.90;15.10;;;;;;;;;;6531884;28;20193;-95
2022/11/06 00:53:25;;;;;;;23.20;13.97;;;;;;;;;;6520594;28;20234;-96
2022/11/06 00:56:35;;;;;;;18.20;13.73;;;;;;;;;;6520920;28;20627;-96
2022/11/06 00:59:46;;;;;;;20.37;14.10;;;;;;;;;;6521065;28;20189;-96
2022/11/06 01:02:58;;;;;;;22.47;15.27;;;;;;;;;;6522841;28;20186;-96
2022/11/06 01:06:11;;;;;;;22.77;13.97;;;;;;;;;;6522850;28;20194;-96
2022/11/06 01:09:23;;;;;;;18.87;12.20;;;;;;;;;;6521175;28;20244;-96
2022/11/06 01:12:35;;;;;;;25.57;16.93;;;;;;;;;;6524324;28;20214;-96
2022/11/06 01:15:46;;;;;;;24.87;16.33;;;;;;;;;;6520822;28;20187;-95
2022/11/06 01:18:56;;;;;;;26.33;15.33;;;;;;;;;;6520412;28;20185;-94
2022/11/06 01:22:08;;;;;;;25.90;15.93;;;;;;;;;;6521540;28;20170;-95
2022/11/06 01:25:19;;;;;;;27.43;15.50;;;;;;;;;;6522127;28;20194;-94
2022/11/06 01:28:29;;;;;;;22.33;14.70;;;;;;;;;;6520774;28;20209;-95
2022/11/06 01:31:41;;;;;;;26.03;14.43;;;;;;;;;;6520131;28;20217;-96
2022/11/06 01:34:51;;;;;;;18.03;13.10;;;;;;;;;;6520141;28;20186;-96
2022/11/06 01:38:02;;;;;;;17.33;12.80;;;;;;;;;;6521846;28;20186;-96
2022/11/06 01:41:24;;;;;;;19.90;12.60;;;;;;;;;;6521883;28;20526;-95
2022/11/06 01:44:34;;;;;;;22.60;13.57;;;;;;;;;;6520112;28;20194;-96
2022/11/06 01:47:45;;;;;;;20.13;12.67;;;;;;;;;;6520703;28;20206;-95
2022/11/06 01:50:57;;;;;;;18.63;12.13;;;;;;;;;;6520113;28;20190;-95
2022/11/06 01:54:07;;;;;;;21.07;13.47;;;;;;;;;;6537681;28;20242;-95
2022/11/06 01:57:19;;;;;;;21.57;13.07;;;;;;;;;;6528399;28;20182;-95
2022/11/06 02:00:31;;;;;;;21.47;12.83;;;;;;;;;;6546102;28;20260;-92
2022/11/06 02:03:44;;;;;;;23.77;14.37;;;;;;;;;;6546738;28;20521;-93
2022/11/06 02:06:56;;;;;;;20.87;14.13;;;;;;;;;;6545828;28;20205;-92
2022/11/06 02:10:06;;;;;;;19.43;13.13;;;;;;;;;;6546288;28;20626;-92
2022/11/06 02:13:20;;;;;;;24.30;14.03;;;;;;;;;;6546169;28;20260;-96
2022/11/06 02:16:46;;;;;;;18.83;11.90;;;;;;;;;;6546168;28;20197;-96
2022/11/06 02:20:29;;;;;;;21.03;13.97;;;;;;;;;;6546916;28;20253;-96
2022/11/06 02:24:04;;;;;;;23.27;13.93;;;;;;;;;;6498119;28;20186;-96
2022/11/06 02:27:16;;;;;;;24.23;14.77;;;;;;;;;;6530054;28;20221;-93
2022/11/06 02:30:26;;;;;;;25.60;15.03;;;;;;;;;;6547419;28;20283;-94
2022/11/06 02:33:43;;;;;;;23.80;15.27;;;;;;;;;;6527584;28;20178;-94
2022/11/06 02:36:59;;;;;;;24.40;14.97;;;;;;;;;;6545251;28;20182;-94
2022/11/06 02:40:10;;;;;;;23.00;14.73;;;;;;;;;;6528426;28;20529;-93
2022/11/06 02:43:22;;;;;;;27.83;15.53;;;;;;;;;;6544728;28;20177;-93
2022/11/06 02:46:33;;;;;;;28.60;18.03;;;;;;;;;;6544183;28;20575;-94
2022/11/06 02:49:46;;;;;;;24.33;13.70;;;;;;;;;;6545235;28;20186;-93
2022/11/06 02:53:00;;;;;;;20.77;13.13;;;;;;;;;;6545264;28;20626;-94
2022/11/06 02:56:15;;;;;;;26.67;14.93;;;;;;;;;;6527696;28;20188;-94
2022/11/06 02:59:29;;;;;;;27.03;14.83;;;;;;;;;;6528046;28;20178;-94
2022/11/06 03:02:58;;;;;;;28.80;16.03;;;;;;;;;;6544675;28;20181;-93
2022/11/06 03:06:18;;;;;;;19.73;12.67;;;;;;;;;;6527497;28;20692;-93
2022/11/06 03:09:30;;;;;;;25.30;14.77;;;;;;;;;;6545053;28;20182;-94
2022/11/06 03:12:54;;;;;;;20.47;14.37;;;;;;;;;;6527320;28;20213;-94
2022/11/06 03:16:28;;;;;;;19.00;13.33;;;;;;;;;;6556591;28;20553;-94
2022/11/06 03:19:43;;;;;;;25.83;15.13;;;;;;;;;;6559839;28;20191;-94
2022/11/06 03:23:01;;;;;;;20.23;13.27;;;;;;;;;;6571118;28;20227;-94
2022/11/06 03:26:16;;;;;;;21.40;13.57;;;;;;;;;;6569598;28;20287;-94
2022/11/06 03:29:33;;;;;;;22.17;13.93;;;;;;;;;;6569196;28;20683;-94
2022/11/06 03:32:56;;;;;;;20.30;12.70;;;;;;;;;;6570360;28;20223;-94
2022/11/06 03:36:12;;;;;;;23.03;13.50;;;;;;;;;;6570277;28;20510;-95
2022/11/06 03:39:26;;;;;;;23.17;14.40;;;;;;;;;;6569982;28;20584;-94
2022/11/06 03:42:38;;;;;;;21.00;13.30;;;;;;;;;;6570283;28;20170;-94
2022/11/06 03:45:50;;;;;;;18.83;13.43;;;;;;;;;;6570502;28;20634;-94
2022/11/06 03:49:06;;;;;;;18.77;12.57;;;;;;;;;;6568654;28;20192;-96
2022/11/06 03:52:31;;;;;;;24.60;13.03;;;;;;;;;;6570652;28;20181;-95
2022/11/06 03:55:50;;;;;;;19.40;12.23;;;;;;;;;;6570548;28;20185;-96
2022/11/06 03:59:05;;;;;;;17.80;12.60;;;;;;;;;;6567836;28;20257;-96
2022/11/06 04:02:18;;;;;;;17.17;11.97;;;;;;;;;;6578301;28;20620;-96
2022/11/06 04:05:31;;;;;;;19.50;12.97;;;;;;;;;;6575237;28;20239;-96
2022/11/06 04:15:57;;;;;;;18.87;11.73;;;;;;;;;;6574751;28;20607;-94
2022/11/06 04:19:13;;;;;;;23.47;12.40;;;;;;;;;;6573652;28;20185;-94
2022/11/06 04:22:42;;;;;;;20.83;12.03;;;;;;;;;;6574169;28;20173;-95
2022/11/06 04:29:36;;;;;;;21.73;11.80;;;;;;;;;;6574926;28;20184;-94
2022/11/06 04:32:58;;;;;;;18.43;11.37;;;;;;;;;;6573343;28;20181;-94
2022/11/06 04:36:19;;;;;;;22.30;12.50;;;;;;;;;;6574627;28;20177;-94
2022/11/06 04:39:47;;;;;;;20.77;12.23;;;;;;;;;;6574433;28;20628;-93
2022/11/06 04:43:01;;;;;;;21.63;12.90;;;;;;;;;;6573707;28;20668;-94
2022/11/06 04:46:15;;;;;;;21.23;12.73;;;;;;;;;;6574572;28;20555;-94
2022/11/06 04:49:27;;;;;;;19.90;12.60;;;;;;;;;;6573335;28;20189;-94
2022/11/06 04:52:39;;;;;;;21.60;12.70;;;;;;;;;;6572915;28;20255;-93
2022/11/06 04:55:54;;;;;;;20.90;12.53;;;;;;;;;;6555825;28;20568;-92
2022/11/06 04:59:05;;;;;;;21.30;11.53;;;;;;;;;;6573963;28;20591;-93
2022/11/06 05:02:16;;;;;;;21.10;12.23;;;;;;;;;;6573490;28;20184;-93
2022/11/06 05:05:26;;;;;;;16.80;12.00;;;;;;;;;;6555525;28;20320;-91
2022/11/06 05:08:37;;;;;;;19.67;12.20;;;;;;;;;;6573559;28;20549;-94
2022/11/06 05:11:47;;;;;;;20.27;11.73;;;;;;;;;;6555549;28;20239;-93
2022/11/06 05:14:57;;;;;;;22.03;12.30;;;;;;;;;;6555296;28;20181;-94
2022/11/06 05:18:08;;;;;;;19.53;11.57;;;;;;;;;;6573480;28;20492;-94
2022/11/06 05:24:47;;;;;;;20.87;10.13;;;;;;;;;;6573382;28;20163;-95
2022/11/06 05:27:57;;;;;;;17.83;10.50;;;;;;;;;;6554589;28;20209;-95
2022/11/06 05:31:09;;;;;;;23.03;11.77;;;;;;;;;;6561300;28;20192;-95
2022/11/06 05:34:20;;;;;;;18.67;10.93;;;;;;;;;;6571253;28;20184;-95
2022/11/06 05:37:31;;;;;;;17.23;11.00;;;;;;;;;;6572734;28;20173;-93
2022/11/06 05:40:41;;;;;;;16.83;10.50;;;;;;;;;;6571593;28;20169;-94
2022/11/06 05:43:51;;;;;;;16.10;11.57;;;;;;;;;;6572565;28;20177;-93
2022/11/06 05:47:02;;;;;;;21.80;13.63;;;;;;;;;;6572398;28;20611;-93
2022/11/06 05:50:12;;;;;;;21.97;14.10;;;;;;;;;;6572407;28;20181;-94
2022/11/06 05:53:22;;;;;;;26.33;15.37;;;;;;;;;;6570847;28;20232;-94
2022/11/06 05:56:33;;;;;;;30.13;16.80;;;;;;;;;;6587461;28;20184;-93
2022/11/06 05:59:43;;;;;;;31.07;16.63;;;;;;;;;;6572219;28;20593;-93
2022/11/06 06:02:53;;;;;;;30.67;16.83;;;;;;;;;;6571592;28;20181;-93
2022/11/06 06:06:03;;;;;;;27.27;18.80;;;;;;;;;;6569944;28;20205;-93
2022/11/06 06:09:14;;;;;;;30.27;17.60;;;;;;;;;;6572315;28;20179;-91
2022/11/06 06:12:25;;;;;;;28.60;17.17;;;;;;;;;;6572602;28;20176;-93
2022/11/06 06:15:39;;;;;;;28.83;15.73;;;;;;;;;;6570082;28;20181;-93
2022/11/06 06:18:52;;;;;;;23.73;14.17;;;;;;;;;;6572823;28;20260;-93
2022/11/06 06:22:02;;;;;;;19.63;13.00;;;;;;;;;;6571146;28;20174;-94
2022/11/06 06:25:12;;;;;;;23.60;13.47;;;;;;;;;;6570517;28;20177;-94
2022/11/06 06:28:23;;;;;;;24.63;13.73;;;;;;;;;;6571183;28;20181;-94
2022/11/06 06:31:33;;;;;;;22.03;12.67;;;;;;;;;;6570093;28;20526;-95
2022/11/06 06:34:43;;;;;;;22.27;13.33;;;;;;;;;;6570809;28;20185;-94
2022/11/06 06:37:54;;;;;;;20.90;13.17;;;;;;;;;;6572307;28;20614;-94
2022/11/06 06:41:06;;;;;;;22.93;13.80;;;;;;;;;;6569655;28;20211;-93
2022/11/06 06:44:16;;;;;;;24.33;13.63;;;;;;;;;;6571231;28;20181;-95
2022/11/06 06:47:27;;;;;;;22.97;13.87;;;;;;;;;;6569271;28;20201;-93
2022/11/06 06:50:37;;;;;;;25.07;14.10;;;;;;;;;;6569704;28;20189;-94
2022/11/06 06:53:47;;;;;;;26.43;16.13;;;;;;;;;;6568787;28;20264;-95
2022/11/06 06:56:59;;;;;;;32.70;16.53;;;;;;;;;;6568944;28;20231;-94
2022/11/06 07:00:10;;;;;;;26.90;17.50;;;;;;;;;;6569488;28;20185;-94
2022/11/06 07:03:20;;;;;;;25.63;14.70;;;;;;;;;;6569430;28;20216;-94
2022/11/06 07:06:31;;;;;;;21.80;13.20;;;;;;;;;;6570622;28;20255;-94
2022/11/06 07:09:41;;;;;;;21.13;13.77;;;;;;;;;;6570817;28;20259;-94
2022/11/06 07:12:51;;;;;;;29.33;13.10;;;;;;;;;;6569322;28;20177;-95
2022/11/06 07:16:07;;;;;;;19.57;11.73;;;;;;;;;;6569064;28;20215;-94
2022/11/06 07:19:17;;;;;;;27.20;15.23;;;;;;;;;;6570045;28;20272;-93
2022/11/06 07:22:27;;;;;;;24.27;13.50;;;;;;;;;;6570120;28;20165;-92
2022/11/06 07:25:38;;;;;;;20.13;11.37;;;;;;;;;;6570049;28;20203;-92
2022/11/06 07:28:48;;;;;;;21.07;13.47;;;;;;;;;;6570713;28;20173;-92
2022/11/06 07:31:58;;;;;;;19.50;12.40;;;;;;;;;;6570293;28;20633;-92
2022/11/06 07:35:09;;;;;;;20.07;11.27;;;;;;;;;;6574124;28;20184;-92
2022/11/06 07:38:19;;;;;;;18.10;12.60;;;;;;;;;;6575920;28;20625;-92
2022/11/06 07:41:29;;;;;;;20.10;12.57;;;;;;;;;;6575601;28;20188;-92
2022/11/06 07:44:40;;;;;;;19.33;12.87;;;;;;;;;;6575108;28;20169;-92
2022/11/06 07:47:50;;;;;;;20.50;12.63;;;;;;;;;;6574833;28;20545;-93
2022/11/06 07:51:01;;;;;;;20.93;12.13;;;;;;;;;;6574015;28;20271;-94
2022/11/06 07:54:12;;;;;;;16.97;12.97;;;;;;;;;;6575555;28;20604;-92
2022/11/06 07:57:22;;;;;;;20.10;13.53;;;;;;;;;;6574533;28;20272;-93
2022/11/06 08:00:32;;;;;;;21.37;12.53;;;;;;;;;;6574247;28;20173;-93
2022/11/06 08:03:43;;;;;;;20.77;12.67;;;;;;;;;;6574648;28;20173;-94
2022/11/06 08:06:53;;;;;;;23.23;12.97;;;;;;;;;;6573670;28;20646;-94
2022/11/06 08:10:04;;;;;;;18.70;12.13;;;;;;;;;;6574012;28;20173;-94
2022/11/06 08:13:15;;;;;;;19.10;11.77;;;;;;;;;;6573373;28;20176;-94
2022/11/06 08:16:27;;;;;;;18.33;12.00;;;;;;;;;;6556445;28;20617;-93
2022/11/06 08:19:37;;;;;;;20.43;12.10;;;;;;;;;;6573649;28;20177;-93
2022/11/06 08:22:47;;;;;;;19.57;12.97;;;;;;;;;;6556237;28;20172;-94
2022/11/06 08:25:59;;;;;;;18.17;12.03;;;;;;;;;;6555791;28;20266;-94
2022/11/06 08:29:09;;;;;;;17.70;12.80;;;;;;;;;;6556082;28;20188;-94
2022/11/06 08:32:21;;;;;;;18.00;12.70;;;;;;;;;;6555935;28;20520;-94
2022/11/06 08:35:33;;;;;;;17.40;12.13;;;;;;;;;;6573333;28;20177;-95
2022/11/06 08:38:46;;;;;;;20.70;13.00;;;;;;;;;;6573692;28;20173;-94
2022/11/06 08:41:56;;;;;;;14.73;10.93;;;;;;;;;;6555715;28;20170;-93
2022/11/06 08:45:07;;;;;;;16.27;11.10;;;;;;;;;;6572166;28;20236;-94
2022/11/06 08:48:17;;;;;;;14.07;10.67;;;;;;;;;;6554470;28;20169;-92
2022/11/06 08:51:27;;;;;;;16.90;10.97;;;;;;;;;;6573508;28;20201;-93
2022/11/06 08:54:38;;;;;;;18.03;11.67;;;;;;;;;;6573046;28;20233;-92
2022/11/06 08:57:48;;;;;;;19.97;13.93;;;;;;;;;;6572778;28;20620;-93
2022/11/06 09:00:58;;;;;;;15.10;10.33;;;;;;;;;;6572552;28;20178;-94
2022/11/06 09:04:08;;;;;;;12.07;10.37;;;;;;;;;;6555555;28;20172;-93
2022/11/06 09:07:19;;;;;;;13.20;10.47;;;;;;;;;;6572368;28;20256;-94
2022/11/06 09:10:29;;;;;;;15.07;10.13;;;;;;;;;;6572516;28;20165;-93
2022/11/06 09:13:40;;;;;;;12.77;9.60;;;;;;;;;;6571341;28;20181;-95
2022/11/06 09:36:05;;;;;;;15.13;11.20;;;;;;;;;;6570339;28;21812;-94
2022/11/06 09:39:20;;;;;;;13.13;10.87;;;;;;;;;;6571742;28;20176;-93
2022/11/06 09:42:30;;;;;;;13.17;10.53;;;;;;;;;;6570756;28;20216;-94
2022/11/06 09:45:41;;;;;;;13.60;9.83;;;;;;;;;;6571639;28;20205;-91
2022/11/06 09:49:03;;;;;;;14.20;10.60;;;;;;;;;;6571078;28;20205;-91
2022/11/06 10:13:54;;;;;;;12.30;10.43;;;;;;;;;;6564934;28;20240;-93
2022/11/06 10:17:13;;;;;;;14.63;10.43;;;;;;;;;;6569585;28;20262;-92
2022/11/06 10:20:36;;;;;;;14.40;9.33;;;;;;;;;;6567736;28;20181;-92
2022/11/06 10:24:10;;;;;;;13.90;9.50;;;;;;;;;;6566241;28;20569;-91
2022/11/06 10:31:32;;;;;;;11.57;9.10;;;;;;;;;;6569230;28;20247;-91
2022/11/06 10:46:28;;;;;;;14.53;10.80;;;;;;;;;;6568106;28;20577;-95
2022/11/06 10:49:43;;;;;;;14.37;11.33;;;;;;;;;;6569809;28;20177;-95
2022/11/06 10:53:10;;;;;;;15.80;12.73;;;;;;;;;;6569057;28;20625;-95
2022/11/06 10:56:26;;;;;;;16.37;12.80;;;;;;;;;;6567624;28;20180;-95
2022/11/06 10:59:37;;;;;;;16.77;11.87;;;;;;;;;;6551999;28;20201;-95
2022/11/06 11:02:52;;;;;;;16.77;12.00;;;;;;;;;;6550778;28;20192;-95
2022/11/06 11:06:03;;;;;;;13.73;11.00;;;;;;;;;;6548033;28;20232;-95
2022/11/06 11:09:33;;;;;;;11.47;9.60;;;;;;;;;;6550812;28;20165;-96
2022/11/06 11:12:44;;;;;;;12.27;8.67;;;;;;;;;;6568673;28;20305;-96
2022/11/06 11:15:57;;;;;;;13.43;9.23;;;;;;;;;;6550328;28;20185;-96
2022/11/06 11:19:22;;;;;;;8.03;6.43;;;;;;;;;;6568175;28;20651;-92
2022/11/06 11:22:39;;;;;;;9.50;7.60;;;;;;;;;;6565851;28;20227;-92
2022/11/06 11:30:16;;;;;;;13.83;9.00;;;;;;;;;;6565545;28;20741;-90
2022/11/06 11:33:26;;;;;;;11.07;6.57;;;;;;;;;;6570159;28;20211;-93
2022/11/06 12:25:18;;;;;;;9.17;7.43;;;;;;;;;;6611228;28;20171;-93
2022/11/06 12:29:01;;;;;;;12.10;8.90;;;;;;;;;;6595597;28;20188;-92
2022/11/06 12:44:13;;;;;;;8.83;7.50;;;;;;;;;;6610719;28;20188;-92
2022/11/06 12:47:44;;;;;;;9.23;6.90;;;;;;;;;;6614103;28;20289;-93
2022/11/06 12:51:04;;;;;;;10.00;7.10;;;;;;;;;;6614646;28;20229;-92
2022/11/06 13:00:57;;;;;;;15.00;10.97;;;;;;;;;;6593264;28;20229;-94
2022/11/06 13:04:14;;;;;;;10.27;8.43;;;;;;;;;;6566491;28;20192;-90
2022/11/06 13:34:41;;;;;;;6.67;5.50;;;;;;;;;;6591025;28;20278;-92
2022/11/06 13:38:17;;;;;;;10.87;7.90;;;;;;;;;;6596530;28;20296;-92
2022/11/06 13:41:28;;;;;;;18.97;13.83;;;;;;;;;;6579709;28;20621;-93
2022/11/06 15:03:29;;;;;;;32.10;18.37;;;;;;;;;;6603619;23;20296;-93
2022/11/06 15:06:42;;;;;;;20.77;12.57;;;;;;;;;;6611875;28;20201;-93
2022/11/06 15:09:52;;;;;;;31.37;18.80;;;;;;;;;;6609170;28;20180;-95
2022/11/06 15:13:03;;;;;;;38.40;22.60;;;;;;;;;;6603199;28;20245;-92
2022/11/06 15:16:27;;;;;;;90.73;57.57;;;;;;;;;;6611948;28;20518;-92
2022/11/06 15:19:50;;;;;;;82.33;52.87;;;;;;;;;;6603455;28;20654;-93
2022/11/06 15:23:16;;;;;;;65.03;36.77;;;;;;;;;;6615442;28;20681;-91
2022/11/06 15:26:33;;;;;;;55.90;36.33;;;;;;;;;;6600554;28;20212;-93
2022/11/06 15:29:46;;;;;;;49.97;33.93;;;;;;;;;;6617628;28;20176;-91
2022/11/06 15:33:01;;;;;;;53.83;34.93;;;;;;;;;;6598817;28;20529;-94
2022/11/06 15:36:12;;;;;;;51.17;34.83;;;;;;;;;;6615439;28;20224;-93
2022/11/06 15:39:50;;;;;;;54.77;35.27;;;;;;;;;;6599616;28;20540;-94
2022/11/06 15:43:04;;;;;;;51.67;32.17;;;;;;;;;;6610009;28;20522;-90
2022/11/06 15:46:18;;;;;;;44.60;30.80;;;;;;;;;;6591740;28;20200;-96
2022/11/06 15:49:28;;;;;;;45.90;32.07;;;;;;;;;;6596372;28;20192;-93
2022/11/06 15:52:46;;;;;;;43.40;29.60;;;;;;;;;;6591294;28;20526;-93
2022/11/06 16:09:25;;;;;;;50.27;34.10;;;;;;;;;;6520276;28;20304;-95
2022/11/06 16:12:36;;;;;;;54.03;32.63;;;;;;;;;;6521898;28;20536;-94
2022/11/06 16:15:59;;;;;;;42.87;29.20;;;;;;;;;;6505476;28;20538;-93
2022/11/06 16:19:28;;;;;;;48.03;33.03;;;;;;;;;;6519262;28;20218;-95
2022/11/06 16:22:39;;;;;;;61.10;36.27;;;;;;;;;;6520382;28;20193;-95
2022/11/06 16:25:57;;;;;;;61.47;37.63;;;;;;;;;;6522447;28;20202;-96
2022/11/06 16:29:20;;;;;;;57.97;36.63;;;;;;;;;;6516146;28;20185;-96
2022/11/06 16:32:36;;;;;;;77.23;39.37;;;;;;;;;;6519970;28;20190;-96
2022/11/06 16:35:48;;;;;;;81.20;44.30;;;;;;;;;;6521308;28;20261;-95
2022/11/06 16:39:17;;;;;;;69.07;40.00;;;;;;;;;;6505600;28;20214;-96
2022/11/06 16:42:30;;;;;;;70.13;40.53;;;;;;;;;;6523660;28;20179;-95
2022/11/06 16:45:52;;;;;;;63.27;38.50;;;;;;;;;;6522807;28;20174;-95
2022/11/06 16:49:22;;;;;;;70.93;42.80;;;;;;;;;;6521562;28;20174;-96
2022/11/06 16:52:39;;;;;;;75.93;45.53;;;;;;;;;;6522693;28;20197;-95
2022/11/06 16:56:00;;;;;;;84.53;48.37;;;;;;;;;;6546044;28;20247;-96
2022/11/06 16:59:14;;;;;;;75.03;46.67;;;;;;;;;;6545917;28;20174;-95
2022/11/06 17:02:26;;;;;;;87.73;51.20;;;;;;;;;;6547133;28;20533;-96
2022/11/06 17:05:39;;;;;;;85.27;49.67;;;;;;;;;;6542623;28;20209;-96
2022/11/06 17:09:00;;;;;;;86.63;52.87;;;;;;;;;;6546453;28;20308;-96
2022/11/06 17:12:10;;;;;;;76.57;46.07;;;;;;;;;;6543440;28;20185;-96
2022/11/06 17:15:21;;;;;;;87.37;48.83;;;;;;;;;;6547289;28;20615;-96
2022/11/06 17:18:36;;;;;;;87.83;51.33;;;;;;;;;;6561287;28;20177;-96
2022/11/06 17:21:47;;;;;;;91.97;50.73;;;;;;;;;;6546741;28;20181;-96
2022/11/06 17:24:58;;;;;;;79.53;47.37;;;;;;;;;;6547192;28;20231;-96
2022/11/06 17:28:09;;;;;;;77.40;46.73;;;;;;;;;;6545087;28;20244;-96
2022/11/06 17:31:20;;;;;;;86.00;51.13;;;;;;;;;;6545312;28;20177;-96
2022/11/06 17:34:30;;;;;;;83.03;47.73;;;;;;;;;;6546056;28;20170;-96
2022/11/06 17:37:40;;;;;;;93.30;49.27;;;;;;;;;;6544799;28;20257;-95
2022/11/06 17:40:52;;;;;;;73.33;45.20;;;;;;;;;;6545316;28;20638;-96
2022/11/06 17:44:11;;;;;;;75.60;44.00;;;;;;;;;;6561005;28;20185;-96
2022/11/06 17:47:21;;;;;;;67.53;39.97;;;;;;;;;;6545748;28;20410;-95
2022/11/06 17:51:48;;;;;;;94.00;50.40;;;;;;;;;;6545764;28;20177;-96
2022/11/06 17:54:04;;;;;;;68.87;40.97;;;;;;;;;;6540555;28;20300;-96
2022/11/06 17:57:16;;;;;;;69.43;41.37;;;;;;;;;;6544113;28;20178;-96
2022/11/06 18:00:27;;;;;;;72.17;42.83;;;;;;;;;;6528456;28;20182;-96
2022/11/06 18:03:42;;;;;;;63.60;40.53;;;;;;;;;;6560344;28;20260;-96
2022/11/06 18:06:53;;;;;;;74.17;44.63;;;;;;;;;;6542650;28;20256;-96
2022/11/06 18:10:03;;;;;;;73.20;44.77;;;;;;;;;;6544836;28;20181;-95
2022/11/06 18:13:15;;;;;;;82.30;48.47;;;;;;;;;;6544448;28;20190;-96
2022/11/06 18:16:27;;;;;;;104.20;59.50;;;;;;;;;;6543856;28;20186;-96
2022/11/06 18:19:37;;;;;;;164.90;80.70;;;;;;;;;;6544744;28;20181;-96
2022/11/06 18:22:49;;;;;;;523.77;171.23;;;;;;;;;;6543909;28;20605;-95
2022/11/06 18:26:00;;;;;;;267.17;105.53;;;;;;;;;;6528012;28;20214;-96
2022/11/06 18:29:12;;;;;;;133.17;75.23;;;;;;;;;;6545838;28;20178;-96
2022/11/06 18:32:23;;;;;;;149.23;74.73;;;;;;;;;;6544890;28;20185;-96
2022/11/06 18:35:35;;;;;;;138.77;79.67;;;;;;;;;;6525641;28;20177;-96
2022/11/06 18:38:46;;;;;;;95.23;57.27;;;;;;;;;;6545496;28;20660;-96
2022/11/06 18:42:02;;;;;;;89.70;50.33;;;;;;;;;;6559258;28;20217;-96
2022/11/06 18:45:18;;;;;;;88.77;51.77;;;;;;;;;;6547617;28;20170;-96
2022/11/06 18:48:29;;;;;;;82.67;47.30;;;;;;;;;;6548134;28;20201;-96
2022/11/06 18:51:42;;;;;;;123.63;60.97;;;;;;;;;;6545944;28;20182;-95
2022/11/06 18:54:57;;;;;;;93.33;51.23;;;;;;;;;;6530560;28;20662;-96
2022/11/06 18:58:08;;;;;;;79.17;45.33;;;;;;;;;;6544572;28;20180;-96
2022/11/06 19:01:24;;;;;;;96.43;51.13;;;;;;;;;;6543230;28;20170;-96
2022/11/06 19:04:36;;;;;;;94.20;53.03;;;;;;;;;;6540204;28;20170;-96
2022/11/06 19:07:47;;;;;;;80.90;47.23;;;;;;;;;;6570035;28;20231;-96
2022/11/06 19:11:02;;;;;;;82.27;47.80;;;;;;;;;;6597012;28;20269;-96
2022/11/06 19:14:14;;;;;;;88.17;48.50;;;;;;;;;;6581165;28;20180;-96
2022/11/06 19:17:29;;;;;;;92.70;50.90;;;;;;;;;;6580722;28;20255;-96
2022/11/06 19:20:42;;;;;;;84.57;47.73;;;;;;;;;;6579056;28;20203;-96
2022/11/06 19:23:58;;;;;;;104.90;53.83;;;;;;;;;;6576777;28;20184;-96
2022/11/06 19:27:09;;;;;;;108.50;54.40;;;;;;;;;;6595370;28;20208;-95
2022/11/06 19:30:19;;;;;;;106.33;54.73;;;;;;;;;;6578214;28;20575;-96
2022/11/06 19:33:30;;;;;;;110.93;54.97;;;;;;;;;;6577771;28;20231;-96
2022/11/06 19:36:42;;;;;;;103.00;53.20;;;;;;;;;;6576544;28;20207;-96
2022/11/06 19:39:52;;;;;;;103.40;55.10;;;;;;;;;;6577264;28;20176;-96
2022/11/06 19:43:05;;;;;;;105.07;53.33;;;;;;;;;;6576775;28;20179;-96
2022/11/06 19:46:18;;;;;;;98.80;52.00;;;;;;;;;;6590393;28;20530;-96
2022/11/06 19:49:28;;;;;;;91.30;50.90;;;;;;;;;;6577125;28;20168;-94
2022/11/06 19:52:38;;;;;;;87.17;50.77;;;;;;;;;;6577225;28;20687;-94
2022/11/06 19:55:49;;;;;;;98.03;53.07;;;;;;;;;;6577647;28;20545;-94
2022/11/06 19:59:00;;;;;;;87.10;47.80;;;;;;;;;;6574417;28;20177;-93
2022/11/06 20:02:11;;;;;;;98.27;51.67;;;;;;;;;;6577819;28;20676;-94
2022/11/06 20:05:21;;;;;;;88.30;51.30;;;;;;;;;;6590527;28;20234;-94
2022/11/06 20:08:32;;;;;;;97.23;53.83;;;;;;;;;;6576877;28;20318;-93
2022/11/06 20:11:42;;;;;;;95.67;52.90;;;;;;;;;;6579199;28;20188;-96
2022/11/06 20:14:52;;;;;;;98.50;55.00;;;;;;;;;;6578509;28;20254;-94
2022/11/06 20:18:02;;;;;;;96.13;53.27;;;;;;;;;;6573612;28;20212;-93
2022/11/06 20:21:13;;;;;;;92.40;50.47;;;;;;;;;;6593472;28;20180;-93
2022/11/06 20:24:23;;;;;;;104.53;53.70;;;;;;;;;;6575908;28;20337;-93
2022/11/06 20:27:33;;;;;;;117.27;59.13;;;;;;;;;;6594086;28;20200;-93
2022/11/06 20:30:44;;;;;;;120.33;61.17;;;;;;;;;;6576582;28;20251;-94
2022/11/06 20:33:56;;;;;;;147.53;74.33;;;;;;;;;;6576552;28;20491;-93
2022/11/06 20:37:06;;;;;;;133.37;66.40;;;;;;;;;;6589192;28;20178;-93
2022/11/06 20:40:17;;;;;;;103.80;58.37;;;;;;;;;;6595639;28;20173;-94
2022/11/06 20:43:28;;;;;;;110.47;59.10;;;;;;;;;;6580937;28;20203;-96
2022/11/06 20:46:38;;;;;;;110.10;55.83;;;;;;;;;;6580541;28;20534;-94
2022/11/06 20:49:49;;;;;;;105.00;55.17;;;;;;;;;;6579575;28;20172;-94
2022/11/06 20:52:59;;;;;;;84.67;48.90;;;;;;;;;;6584605;28;20726;-93
2022/11/06 20:56:11;;;;;;;92.97;49.17;;;;;;;;;;6598467;28;20177;-94
2022/11/06 20:59:21;;;;;;;95.23;52.17;;;;;;;;;;6597637;28;20210;-93
2022/11/06 21:02:32;;;;;;;91.40;51.00;;;;;;;;;;6580846;28;20176;-94
2022/11/06 21:05:43;;;;;;;98.23;53.30;;;;;;;;;;6598649;28;20512;-93
2022/11/06 21:08:54;;;;;;;92.33;51.60;;;;;;;;;;6597887;28;20315;-93
2022/11/06 21:12:05;;;;;;;93.90;49.07;;;;;;;;;;6580468;28;20548;-93
2022/11/06 21:15:16;;;;;;;91.43;50.00;;;;;;;;;;6574927;28;20184;-93
2022/11/06 21:18:26;;;;;;;81.23;45.20;;;;;;;;;;6573940;28;20173;-93
2022/11/06 21:21:38;;;;;;;82.03;44.83;;;;;;;;;;6580165;28;20181;-93
2022/11/06 21:24:48;;;;;;;84.20;49.07;;;;;;;;;;6597874;28;20183;-93
2022/11/06 21:28:00;;;;;;;91.43;53.87;;;;;;;;;;6597455;28;20545;-93
2022/11/06 21:31:11;;;;;;;82.03;48.63;;;;;;;;;;6578292;28;20173;-92
2022/11/06 21:34:22;;;;;;;63.07;40.80;;;;;;;;;;6597057;28;20168;-93
2022/11/06 21:37:33;;;;;;;73.57;44.57;;;;;;;;;;6578120;28;20235;-93
2022/11/06 21:40:44;;;;;;;84.77;51.73;;;;;;;;;;6577355;28;20259;-93
2022/11/06 21:43:54;;;;;;;69.40;43.10;;;;;;;;;;6596840;28;20172;-93
2022/11/06 21:47:04;;;;;;;59.47;36.07;;;;;;;;;;6593391;28;20196;-93
2022/11/06 21:50:18;;;;;;;63.20;38.03;;;;;;;;;;6596111;28;20172;-94
2022/11/06 21:56:57;;;;;;;55.43;34.40;;;;;;;;;;6596660;28;20164;-95
2022/11/06 22:00:08;;;;;;;52.33;33.70;;;;;;;;;;6597345;28;20215;-95
2022/11/06 22:03:18;;;;;;;53.83;35.30;;;;;;;;;;6597376;28;20173;-95
2022/11/06 22:06:29;;;;;;;48.87;30.63;;;;;;;;;;6597609;28;20192;-95
2022/11/06 22:09:40;;;;;;;53.10;33.00;;;;;;;;;;6579288;28;20665;-95
2022/11/06 22:12:50;;;;;;;50.63;32.93;;;;;;;;;;6596984;28;20634;-95
2022/11/06 22:16:01;;;;;;;54.60;30.70;;;;;;;;;;6578948;28;20180;-95
2022/11/06 22:19:12;;;;;;;44.00;25.90;;;;;;;;;;6577611;28;20169;-95
2022/11/06 22:22:22;;;;;;;41.00;26.70;;;;;;;;;;6596480;28;20195;-93
2022/11/06 22:25:32;;;;;;;44.40;27.63;;;;;;;;;;6578854;28;20176;-93
2022/11/06 22:28:44;;;;;;;39.60;24.80;;;;;;;;;;6596025;28;20212;-95
2022/11/06 22:31:55;;;;;;;41.73;25.47;;;;;;;;;;6577697;28;20180;-95
2022/11/06 22:35:05;;;;;;;39.20;25.23;;;;;;;;;;6573469;28;20187;-93
2022/11/06 22:38:15;;;;;;;36.17;23.43;;;;;;;;;;6578551;28;20184;-93
2022/11/06 22:41:26;;;;;;;39.97;23.10;;;;;;;;;;6596610;28;20204;-93
2022/11/06 22:44:38;;;;;;;30.23;18.33;;;;;;;;;;6595777;28;20187;-93
2022/11/06 22:47:48;;;;;;;35.03;21.50;;;;;;;;;;6596617;28;20266;-95
2022/11/06 22:51:05;;;;;;;37.67;22.63;;;;;;;;;;6577381;28;20172;-95
2022/11/06 22:54:16;;;;;;;32.17;19.73;;;;;;;;;;6596912;28;20176;-95
2022/11/06 22:57:26;;;;;;;27.90;18.97;;;;;;;;;;6595508;28;20282;-95
2022/11/06 23:00:36;;;;;;;32.70;21.03;;;;;;;;;;6595899;28;20226;-95
2022/11/06 23:03:48;;;;;;;32.57;20.73;;;;;;;;;;6595105;28;20529;-95
2022/11/06 23:06:59;;;;;;;28.03;19.43;;;;;;;;;;6577893;28;20595;-94
2022/11/06 23:10:09;;;;;;;29.43;20.20;;;;;;;;;;6596159;28;20160;-95